createdAt,value
2019-04-24T00:09:21.661Z,10.6
2019-04-24T00:19:23.177Z,10.4
2019-04-24T00:24:17.107Z,10.5
2019-04-24T00:29:25.866Z,10.4
2019-04-24T00:34:15.028Z,10.5
2019-04-24T00:39:12.101Z,10.5
2019-04-24T00:49:12.798Z,10.4
2019-04-24T00:59:23.808Z,10.2
2019-04-24T01:04:13.245Z,10.3
2019-04-24T01:08:53.836Z,10.3
2019-04-24T01:13:53.376Z,10.4
2019-04-24T01:23:41.788Z,10.4
2019-04-24T01:28:46.325Z,10.4
2019-04-24T01:33:40.488Z,10.4
2019-04-24T01:43:47.935Z,10.3
2019-04-24T01:48:35.681Z,10.4
2019-04-24T01:58:24.075Z,10.4
2019-04-24T02:03:19.329Z,10.3
2019-04-24T02:18:27.742Z,10.2
2019-04-24T02:28:22.157Z,10.2
2019-04-24T02:33:30.287Z,10.2
2019-04-24T02:43:10.407Z,10.1
2019-04-24T02:48:09.513Z,10.2
2019-04-24T02:53:12.606Z,10.2
2019-04-24T03:03:04.037Z,10.1
2019-04-24T03:08:09.712Z,10
2019-04-24T03:17:37.170Z,10.1
2019-04-24T03:22:40.495Z,10.2
2019-04-24T03:27:51.272Z,10.2
2019-04-24T03:47:49.628Z,10.6
2019-04-24T04:07:08.284Z,10
2019-04-24T04:12:21.430Z,10.1
2019-04-24T04:17:24.402Z,10.1
2019-04-24T04:22:14.938Z,10.1
2019-04-24T04:31:54.905Z,9.9
2019-04-24T04:41:50.806Z,10
2019-04-24T04:56:48.106Z,10
2019-04-24T05:01:49.021Z,10
2019-04-24T05:07:02.236Z,10.1
2019-04-24T05:11:50.261Z,10.2
2019-04-24T05:21:41.687Z,10.3
2019-04-24T05:31:24.846Z,10.4
2019-04-24T05:36:19.564Z,10.4
2019-04-24T05:41:05.295Z,10.4
2019-04-24T05:51:09.665Z,10.5
2019-04-24T05:56:01.892Z,10.6
2019-04-24T06:01:04.631Z,10.6
2019-04-24T06:06:14.165Z,10.7
2019-04-24T06:11:03.874Z,10.8
2019-04-24T06:15:58.488Z,10.8
2019-04-24T06:40:49.815Z,11.1
2019-04-24T06:45:40.169Z,11.8
2019-04-24T06:50:55.552Z,11.3
2019-04-24T06:55:37.552Z,11.4
2019-04-24T07:05:24.625Z,11.8
2019-04-24T07:10:39.918Z,12.2
2019-04-24T07:15:16.166Z,12.2
2019-04-24T07:20:13.266Z,11.8
2019-04-24T07:25:05.486Z,12.3
2019-04-24T07:30:29.826Z,12.6
2019-04-24T07:44:56.639Z,12.9
2019-04-24T08:00:03.003Z,13.2
2019-04-24T08:10:09.374Z,13.4
2019-04-24T08:34:38.965Z,14.1
2019-04-24T08:39:32.380Z,14.2
2019-04-24T08:49:21.821Z,14.4
2019-04-24T08:54:35.709Z,14.6
2019-04-24T08:59:37.575Z,14.8
2019-04-24T09:04:30.600Z,14.4
2019-04-24T09:09:04.083Z,15
2019-04-24T09:14:21.167Z,15.2
2019-04-24T09:24:27.324Z,15.5
2019-04-24T09:29:14.721Z,15.2
2019-04-24T09:58:51.686Z,17.1
2019-04-24T10:03:40.888Z,17.4
2019-04-24T10:08:39.565Z,17.6
2019-04-24T10:13:34.800Z,17.8
2019-04-24T10:18:50.976Z,17.9
2019-04-24T10:23:34.449Z,17.6
2019-04-24T10:33:29.778Z,18.4
2019-04-24T10:43:24.467Z,18.6
2019-04-24T10:53:12.667Z,18.8
2019-04-24T10:58:05.197Z,18.8
2019-04-24T11:03:36.625Z,18.6
2019-04-24T11:17:59.870Z,19.3
2019-04-24T11:23:04.991Z,19.5
2019-04-24T11:28:00.336Z,19.8
2019-04-24T11:32:51.342Z,20
2019-04-24T11:37:51.657Z,20.3
2019-04-24T11:42:48.748Z,20.4
2019-04-24T11:47:54.837Z,20.5
2019-04-24T12:02:32.048Z,21.1
2019-04-24T12:07:51.456Z,21.4
2019-04-24T12:12:31.697Z,21.7
2019-04-24T12:17:24.023Z,22
2019-04-24T12:22:17.473Z,22.2
2019-04-24T12:27:25.762Z,22.4
2019-04-24T12:32:36.594Z,21.8
2019-04-24T12:47:25.963Z,21.8
2019-04-24T12:52:05.825Z,21.8
2019-04-24T12:57:24.638Z,21.7
2019-04-24T13:02:03.205Z,21.8
2019-04-24T13:06:52.370Z,21.9
2019-04-24T13:12:02.608Z,22.3
2019-04-24T13:17:22.045Z,21.9
2019-04-24T13:21:35.639Z,21.7
2019-04-24T13:31:55.783Z,22.3
2019-04-24T13:42:01.624Z,21.6
2019-04-24T13:46:47.400Z,21.6
2019-04-24T13:51:50.207Z,21.3
2019-04-24T13:56:37.605Z,21.5
2019-04-24T14:01:41.279Z,21.3
2019-04-24T14:06:40.985Z,21.2
2019-04-24T14:12:17.626Z,21.1
2019-04-24T14:16:25.719Z,21.1
2019-04-24T14:21:22.306Z,21
2019-04-24T14:26:25.815Z,20.9
2019-04-24T14:41:14.162Z,20.7
2019-04-24T14:51:08.221Z,20.7
2019-04-24T14:56:06.010Z,20.6
2019-04-24T15:01:02.702Z,20.5
2019-04-24T15:06:06.423Z,20.9
2019-04-24T15:16:20.947Z,20.3
2019-04-24T15:20:54.089Z,20.6
2019-04-24T15:25:56.954Z,20.1
2019-04-24T15:30:43.440Z,20
2019-04-24T15:40:56.022Z,19.9
2019-04-24T15:45:36.865Z,18.4
2019-04-24T15:50:39.633Z,19.6
2019-04-24T15:55:01.427Z,19.6
2019-04-24T16:00:27.374Z,20
2019-04-24T16:04:56.541Z,19.4
2019-04-24T16:09:53.321Z,19.3
2019-04-24T16:15:11.566Z,19.1
2019-04-24T16:20:10.104Z,19.1
2019-04-24T16:30:12.140Z,19.1
2019-04-24T16:45:03.114Z,19
2019-04-24T16:55:01.541Z,19
2019-04-24T16:59:59.789Z,19
2019-04-24T17:04:59.468Z,18.9
2019-04-24T17:09:57.448Z,18.8
2019-04-24T17:14:47.988Z,18.7
2019-04-24T17:19:51.421Z,18.2
2019-04-24T17:24:53.118Z,18.5
2019-04-24T17:34:53.070Z,18.4
2019-04-24T17:39:07.471Z,18.3
2019-04-24T17:44:49.906Z,18.1
2019-04-24T17:49:31.929Z,18.2
2019-04-24T17:58:56.152Z,18.1
2019-04-24T18:03:53.707Z,18
2019-04-24T18:08:51.026Z,18
2019-04-24T18:13:47.335Z,18
2019-04-24T18:18:44.613Z,17.9
2019-04-24T18:23:42.176Z,17.9
2019-04-24T18:28:39.053Z,13.1
2019-04-24T18:33:36.261Z,17.8
2019-04-24T18:38:33.510Z,17.7
2019-04-24T18:43:31.386Z,17.7
2019-04-24T18:48:28.512Z,17.6
2019-04-24T18:53:25.747Z,17.6
2019-04-24T18:58:23.003Z,17.5
2019-04-24T19:03:21.881Z,17.5
2019-04-24T19:08:17.621Z,17.5
2019-04-24T19:13:15.375Z,16.9
2019-04-24T19:18:13.002Z,17.4
2019-04-24T19:23:09.863Z,17.4
2019-04-24T19:28:06.453Z,17.3
2019-04-24T19:33:03.731Z,17.3
2019-04-24T19:38:01.363Z,17.2
2019-04-24T19:42:58.053Z,17.2
2019-04-24T19:47:55.598Z,16.6
2019-04-24T19:52:53.232Z,16.5
2019-04-24T19:57:50.868Z,16.9
2019-04-24T20:02:47.867Z,17
2019-04-24T20:07:45.260Z,17
2019-04-24T20:12:42.965Z,16.4
2019-04-24T20:17:39.742Z,16.9
2019-04-24T20:22:37.275Z,16.4
2019-04-24T20:27:34.532Z,16.9
2019-04-24T20:32:31.928Z,16.9
2019-04-24T20:37:29.341Z,16.8
2019-04-24T20:42:26.637Z,16.8
2019-04-24T20:47:23.693Z,16.8
2019-04-24T20:52:22.112Z,16.8
2019-04-24T20:57:18.366Z,16.8
2019-04-24T21:02:15.360Z,16.7
2019-04-24T21:07:12.704Z,16.6
2019-04-24T21:12:09.774Z,16.7
2019-04-24T21:17:09.224Z,15.9
2019-04-24T21:22:06.001Z,16.6
2019-04-24T21:27:04.245Z,16.6
2019-04-24T21:32:02.235Z,16.7
2019-04-24T21:36:59.081Z,16.6
2019-04-24T21:41:56.099Z,16.6
2019-04-24T21:46:53.102Z,16.6
2019-04-24T21:51:50.437Z,16.5
2019-04-24T21:56:47.349Z,16.5
2019-04-24T22:01:44.797Z,15.7
2019-04-24T22:06:42.076Z,16.3
2019-04-24T22:11:39.299Z,16.3
2019-04-24T22:16:36.403Z,16.2
2019-04-24T22:21:33.572Z,16.1
2019-04-24T22:26:32.000Z,16.1
2019-04-24T22:31:28.637Z,16.1
2019-04-24T22:36:25.200Z,16
2019-04-24T22:41:22.348Z,16
2019-04-24T22:46:21.215Z,15.9
2019-04-24T22:51:16.852Z,15.9
2019-04-24T22:56:14.177Z,15.9
2019-04-24T23:01:11.304Z,15.9
2019-04-24T23:06:08.239Z,15.9
2019-04-24T23:11:05.623Z,15.8
2019-04-24T23:16:02.704Z,15.7
2019-04-24T23:20:59.924Z,15.7
2019-04-24T23:25:57.409Z,15.6
2019-04-24T23:30:54.953Z,15.6
2019-04-24T23:35:53.193Z,15.6
2019-04-24T23:40:49.502Z,15.5
2019-04-24T23:45:46.935Z,15.4
2019-04-24T23:50:44.358Z,15.4
2019-04-24T23:55:41.876Z,15.3
